Date,TemperatureHighF,TemperatureAvgF,TemperatureLowF,DewpointHighF,DewpointAvgF,DewpointLowF,HumidityHigh,HumidityAvg,HumidityLow,PressureMaxIn,PressureMinIn,WindSpeedMaxMPH,WindSpeedAvgMPH,GustSpeedMaxMPH,PrecipitationSumIn
2013-1-1,56,42,35,42,37,31,98,85,50,0.00,40.00,3,2,5,0.04
2013-1-2,56,44,36,43,33,27,90,68,45,0.00,40.00,3,2,5,0.01
2013-1-3,54,45,36,47,38,29,97,79,60,0.00,40.00,9,4,16,0.31
2013-1-4,53,46,44,47,45,43,98,95,79,0.00,40.00,3,2,7,0.34
2013-1-5,49,45,41,45,43,40,98,93,81,0.00,40.00,5,2,10,0.15
2013-1-6,49,45,41,46,42,40,98,93,81,0.00,40.00,6,2,10,0.08
2013-1-7,49,48,44,48,47,43,98,96,92,0.00,40.00,7,4,11,0.27
2013-1-8,52,49,46,49,47,45,98,95,90,0.00,40.00,6,4,11,0.12
2013-1-9,49,43,35,47,40,34,97,90,69,0.00,40.00,8,4,18,0.73
2013-1-10,44,38,33,40,35,32,98,91,78,0.00,40.00,4,2,11,0.66
2013-1-11,45,38,33,41,36,32,97,93,84,0.00,40.00,4,2,8,0.19
2013-1-12,41,34,30,36,32,28,97,92,74,0.00,40.00,4,2,6,0.01
2013-1-13,40,30,26,31,28,25,96,89,66,0.00,40.00,3,2,7,0.01
2013-1-14,46,33,26,33,29,25,95,84,52,0.00,40.00,4,2,7,0.01
2013-1-15,49,37,29,37,32,27,94,83,55,0.00,40.00,5,3,8,0.01
2013-1-16,56,41,32,40,32,29,95,73,48,0.00,40.00,5,4,7,0.01
2013-1-17,67,43,35,47,36,30,97,78,29,0.00,40.00,3,2,7,0.00
2013-1-18,53,40,33,45,37,32,97,92,75,0.00,40.00,2,2,5,0.01
2013-1-19,47,37,32,41,36,31,98,96,79,0.00,40.00,5,2,7,0.01
2013-1-20,59,39,29,43,36,28,98,89,56,0.00,40.00,4,2,7,0.00
2013-1-21,63,42,30,37,32,27,92,71,26,0.00,40.00,3,2,5,0.01
2013-1-22,62,47,39,43,34,26,84,64,29,0.00,40.00,4,2,9,0.01
2013-1-23,47,44,40,44,42,39,98,92,76,0.00,40.00,3,2,8,0.87
2013-1-24,55,45,36,49,43,35,98,93,80,0.00,40.00,5,3,9,0.09
2013-1-25,50,47,42,49,45,41,98,96,92,0.00,40.00,5,4,10,0.36
2013-1-26,48,43,39,44,41,38,98,92,82,0.00,40.00,5,3,9,0.41
2013-1-27,43,40,37,42,39,36,97,96,91,0.00,40.00,4,2,8,1.05
2013-1-28,45,43,42,44,42,40,97,95,92,0.00,40.00,4,3,9,0.70
2013-1-29,46,43,41,44,42,40,98,96,92,0.00,40.00,4,2,8,0.33
2013-1-30,51,43,38,48,42,37,98,97,89,0.00,40.00,3,2,6,0.01
2013-1-31,52,45,40,47,43,39,98,93,79,0.00,40.00,4,3,7,0.01